Sjobris — SLXP — position and weather

sailwx.info

Track history (hours):
 
Tides and Currents Weather Stations Pressure Air Temp Water Temp Dewpoint Dewpoint Depression Visibility Wind Speed Wind Dir Waves Ship Positions

Sjobris

Last reported at 2016-May-05 17:33 UTC. Time now 2016-May-05 18:02 UTC.
Position N 59°20' E 018°04'.

Length 38 m.

Type: Passenger vessel. MMSI: 265522700.

Date/timePositionNaut miles runAvg speedWind from/ knotsBaromVisibWave heightAir tempDewpointWater temp
2016-May-05 17:33N 59°20' E 018°04'7 5.8
2016-May-05 16:18N 59°23' E 018°17'2 0.2
2016-May-05 07:32N 59°21' E 018°14'5 5.4
2016-May-05 06:34N 59°20' E 018°05'0 0.0
2016-May-05 05:33N 59°20' E 018°05'0 0.0
2016-May-05 04:34N 59°20' E 018°05'0 0.0
2016-May-05 03:33N 59°20' E 018°05'0 0.0
2016-May-05 02:34N 59°20' E 018°05'0 0.0
2016-May-05 01:33N 59°20' E 018°05'0 0.0
2016-May-05 00:33N 59°20' E 018°05'0 0.0
2016-May-04 23:33N 59°20' E 018°05'0 0.0
2016-May-04 22:34N 59°20' E 018°05'0 0.0
2016-May-04 21:34N 59°20' E 018°05'0 0.0
2016-May-04 14:33N 59°19' E 018°05'7 6.6
2016-May-04 13:25N 59°23' E 018°18'2 0.4
2016-May-04 07:33N 59°21' E 018°14'5 5.1
2016-May-04 06:32N 59°20' E 018°05'0 0.0
2016-May-04 05:33N 59°20' E 018°05'0 0.0
2016-May-04 04:34N 59°20' E 018°05'0 0.0
2016-May-04 03:34N 59°20' E 018°05'0 0.0
2016-May-04 00:04N 59°20' E 018°05'0 0.0
2016-May-03 23:29N 59°20' E 018°05'0 0.0
2016-May-03 22:32N 59°20' E 018°05'0 0.0
2016-May-03 21:30N 59°20' E 018°05'0 0.0
2016-May-03 19:32N 59°20' E 018°05'0 0.0
2016-May-03 18:21N 59°20' E 018°05'0 0.0
2016-May-03 17:33N 59°20' E 018°05'0 0.0
2016-May-03 15:17N 59°20' E 018°05'0 0.0
2016-May-03 14:10N 59°20' E 018°05'0 0.0
2016-May-03 13:24N 59°20' E 018°05'0 0.0
2016-May-03 12:30N 59°20' E 018°05'0 0.0
2016-May-03 11:33N 59°20' E 018°05'0 0.0
2016-May-03 10:33N 59°20' E 018°05'0 0.0
2016-May-03 08:27N 59°20' E 018°05'0 0.0
2016-May-03 07:16N 59°20' E 018°05'0 0.0
2016-May-03 06:31N 59°20' E 018°05'0 0.0
2016-May-03 05:33N 59°20' E 018°05'0 0.0
2016-May-03 04:33N 59°20' E 018°05'0 0.0
2016-May-03 03:33N 59°20' E 018°05'0 0.0
2016-May-03 02:33N 59°20' E 018°05'0 0.0
2016-May-03 01:33N 59°20' E 018°05'0 0.0
2016-May-03 00:33N 59°20' E 018°05'0 0.0
2016-May-02 23:34N 59°20' E 018°05'0 0.0
2016-May-02 22:34N 59°20' E 018°05'0 0.0
2016-May-02 21:34N 59°20' E 018°05'0 0.0
2016-May-02 20:34N 59°20' E 018°05'0 0.0
2016-May-02 19:33N 59°20' E 018°05'0 0.0
2016-May-02 18:09N 59°20' E 018°05'0 0.0
2016-May-02 17:27N 59°20' E 018°05'0 0.0
2016-May-02 16:33N 59°20' E 018°05'0 0.0
2016-May-02 15:33N 59°20' E 018°05'4 0.5
2016-May-02 08:29N 59°20' E 018°11'4 3.8
2016-May-02 07:33N 59°20' E 018°05'0 0.0
2016-May-02 06:33N 59°20' E 018°05'0 0.0
2016-May-02 05:33N 59°20' E 018°05'0 0.0
2016-May-02 04:34N 59°20' E 018°05'0 0.0
2016-May-02 03:32N 59°20' E 018°05'0 0.0
2016-May-02 02:33N 59°20' E 018°05'0 0.0
2016-May-02 01:32N 59°20' E 018°05'0 0.0
2016-May-02 00:29N 59°20' E 018°05'0 0.0
2016-May-01 23:33N 59°20' E 018°05'0 0.0
2016-May-01 22:33N 59°20' E 018°05'0 0.0
2016-May-01 21:34N 59°20' E 018°05'0 0.0
2016-May-01 20:33N 59°20' E 018°05'0 0.0
2016-May-01 19:32N 59°20' E 018°05'0 0.0
2016-May-01 18:31N 59°20' E 018°05'0 0.1
2016-May-01 17:33N 59°20' E 018°05'5 5.0
2016-May-01 16:30N 59°21' E 018°15'2 0.2
2016-May-01 07:20N 59°20' E 018°12'4 4.7
2016-May-01 06:33N 59°20' E 018°05'0 0.1
2016-May-01 05:33N 59°20' E 018°05'0 0.0
2016-May-01 04:33N 59°20' E 018°05'0 0.0
2016-May-01 03:33N 59°20' E 018°05'0 0.0
2016-May-01 02:33N 59°20' E 018°05'0 0.0
2016-May-01 01:33N 59°20' E 018°05'0 0.0
2016-May-01 00:33N 59°20' E 018°05'0 0.0
2016-Apr-30 23:33N 59°20' E 018°05'0 0.0
2016-Apr-30 22:33N 59°20' E 018°05'0 0.0
2016-Apr-30 21:33N 59°20' E 018°05'0 0.0
2016-Apr-30 20:33N 59°20' E 018°05'0 0.0
2016-Apr-30 19:33N 59°20' E 018°05'0 0.0
2016-Apr-30 18:33N 59°20' E 018°05'0 0.0
2016-Apr-30 17:33N 59°20' E 018°05'0 0.0
2016-Apr-30 16:33N 59°20' E 018°05'0 0.0
2016-Apr-30 15:33N 59°20' E 018°05'0 0.0
2016-Apr-30 14:33N 59°20' E 018°05'0 0.0
2016-Apr-30 13:33N 59°20' E 018°05'0 0.0
2016-Apr-30 12:33N 59°20' E 018°05'0 0.0
2016-Apr-30 11:33N 59°20' E 018°05'0 0.0
2016-Apr-30 10:33N 59°20' E 018°05'0 0.0
2016-Apr-30 09:34N 59°20' E 018°05'0 0.0
2016-Apr-30 04:06N 59°20' E 018°05'0 0.0
2016-Apr-29 19:07N 59°20' E 018°05'0 0.0
2016-Apr-29 17:25N 59°20' E 018°05'0 0.0
2016-Apr-29 16:26N 59°20' E 018°05'0 0.0
2016-Apr-29 15:27N 59°20' E 018°05'0 0.0
2016-Apr-29 14:20N 59°20' E 018°05'0 0.0
2016-Apr-29 13:22N 59°20' E 018°05'0 0.0
2016-Apr-29 12:33N 59°20' E 018°05'0 0.0
2016-Apr-29 11:26N 59°20' E 018°05'0 0.0
2016-Apr-29 10:34N 59°20' E 018°05'0 0.0
2016-Apr-29 09:32N 59°20' E 018°05'0 0.0
2016-Apr-29 08:32N 59°20' E 018°05'0 0.0
2016-Apr-29 07:16N 59°20' E 018°05'0 0.0
2016-Apr-29 06:33N 59°20' E 018°05'0 0.0
2016-Apr-29 05:33N 59°20' E 018°05'0 0.0
2016-Apr-29 04:33N 59°20' E 018°05'0 0.0
2016-Apr-29 03:33N 59°20' E 018°05'0 0.0
2016-Apr-29 02:33N 59°20' E 018°05'0 0.0
2016-Apr-29 01:33N 59°20' E 018°05'0 0.0
2016-Apr-29 00:33N 59°20' E 018°05'0 0.0
2016-Apr-28 23:33N 59°20' E 018°05'0 0.0
2016-Apr-28 22:31N 59°20' E 018°05'0 0.0
2016-Apr-28 21:33N 59°20' E 018°05'0 0.0
2016-Apr-28 20:33N 59°20' E 018°05'0 0.0
2016-Apr-28 19:33N 59°20' E 018°05'0 0.0
2016-Apr-28 18:33N 59°20' E 018°05'0 0.0
2016-Apr-28 17:33N 59°20' E 018°05'0 0.0
2016-Apr-28 16:33N 59°20' E 018°05'0 0.0
2016-Apr-28 15:33N 59°20' E 018°05'0 0.0
2016-Apr-28 14:33N 59°20' E 018°05'0 0.0
2016-Apr-28 13:33N 59°20' E 018°05'0 0.0
2016-Apr-28 12:33N 59°20' E 018°05'0 0.0
2016-Apr-28 11:33N 59°20' E 018°05'0 0.0
2016-Apr-28 10:33N 59°20' E 018°05'0 0.0
2016-Apr-28 09:33N 59°20' E 018°05'0 0.0
2016-Apr-28 08:33N 59°20' E 018°05'0 0.0
2016-Apr-28 07:33N 59°20' E 018°05'0 0.0
2016-Apr-28 06:33N 59°20' E 018°05'0 0.0
2016-Apr-28 05:33N 59°20' E 018°05'0 0.0
2016-Apr-28 04:33N 59°20' E 018°05'0 0.0
2016-Apr-28 03:33N 59°20' E 018°05'0 0.0
2016-Apr-28 02:33N 59°20' E 018°05'0 0.0
2016-Apr-28 01:33N 59°20' E 018°05'0 0.0
2016-Apr-28 00:33N 59°20' E 018°05'0 0.0
2016-Apr-27 23:33N 59°20' E 018°05'0 0.0
2016-Apr-27 22:28N 59°20' E 018°05'0 0.0
2016-Apr-27 21:04N 59°20' E 018°05'0 0.0
2016-Apr-27 20:32N 59°20' E 018°05'0 0.0
2016-Apr-27 19:15N 59°20' E 018°05'0 0.0
2016-Apr-27 18:29N 59°20' E 018°05'0 0.0
2016-Apr-27 17:33N 59°20' E 018°05'0 0.0
2016-Apr-27 16:33N 59°20' E 018°05'0 0.0
2016-Apr-27 15:33N 59°20' E 018°05'0 0.0
2016-Apr-27 14:33N 59°20' E 018°05'0 0.0
2016-Apr-27 13:33N 59°20' E 018°05'0 0.0
2016-Apr-27 12:33N 59°20' E 018°05'0 0.0
2016-Apr-27 11:33N 59°20' E 018°05'0 0.0
2016-Apr-27 10:33N 59°20' E 018°05'0 0.0
2016-Apr-27 09:33N 59°20' E 018°05'0 0.0
2016-Apr-27 08:33N 59°20' E 018°05'0 0.0
2016-Apr-27 07:33N 59°20' E 018°05'0 0.0
2016-Apr-27 06:33N 59°20' E 018°05'0 0.0
2016-Apr-27 05:33N 59°20' E 018°05'0 0.0
2016-Apr-27 04:33N 59°20' E 018°05'0 0.0
2016-Apr-27 03:33N 59°20' E 018°05'0 0.0
2016-Apr-27 02:33N 59°20' E 018°05'0 0.0
2016-Apr-27 01:33N 59°20' E 018°05'0 0.0
2016-Apr-27 00:33N 59°20' E 018°05'0 0.0
2016-Apr-26 23:33N 59°20' E 018°05'0 0.0
2016-Apr-26 22:33N 59°20' E 018°05'0 0.0
2016-Apr-26 21:33N 59°20' E 018°05'0 0.0
2016-Apr-26 20:33N 59°20' E 018°05'0 0.0
2016-Apr-26 19:33N 59°20' E 018°05'0 0.0
2016-Apr-26 18:33N 59°20' E 018°05'0 0.0
2016-Apr-26 17:33N 59°20' E 018°05'0 0.0
2016-Apr-26 16:33N 59°20' E 018°05'0 0.0
2016-Apr-26 15:33N 59°20' E 018°05'0 0.0
2016-Apr-26 14:33N 59°20' E 018°05'0 0.0
2016-Apr-26 13:33N 59°20' E 018°05'0 0.0
2016-Apr-26 12:33N 59°20' E 018°05'0 0.0
2016-Apr-26 11:33N 59°20' E 018°05'0 0.0
2016-Apr-26 10:33N 59°20' E 018°05'0 0.0
2016-Apr-26 09:33N 59°20' E 018°05'0 0.0
2016-Apr-26 08:33N 59°20' E 018°05'0 0.0
2016-Apr-26 07:33N 59°20' E 018°05'0 0.0
2016-Apr-26 06:33N 59°20' E 018°05'0 0.0
2016-Apr-26 05:33N 59°20' E 018°05'0 0.0
2016-Apr-26 04:33N 59°20' E 018°05'0 0.0
2016-Apr-26 03:33N 59°20' E 018°05'0 0.0
2016-Apr-26 02:33N 59°20' E 018°05'0 0.0
2016-Apr-26 01:33N 59°20' E 018°05'0 0.0
2016-Apr-26 00:33N 59°20' E 018°05'0 0.0
2016-Apr-25 23:33N 59°20' E 018°05'0 0.0
2016-Apr-25 22:33N 59°20' E 018°05'0 0.0
2016-Apr-25 21:33N 59°20' E 018°05'0 0.0
2016-Apr-25 20:33N 59°20' E 018°05'0 0.0
2016-Apr-25 19:33N 59°20' E 018°05'0 0.0
2016-Apr-25 18:33N 59°20' E 018°05'  
Track history (hours):
 
Tides and Currents Weather Stations Pressure Air Temp Water Temp Dewpoint Dewpoint Depression Visibility Wind Speed Wind Dir Waves Ship Positions

Sjobris

Last reported at 2016-May-05 17:33 UTC. Time now 2016-May-05 18:02 UTC.
Position N 59°20' E 018°04'.

Length 38 m.

Type: Passenger vessel. MMSI: 265522700.

Date/timePositionNaut miles runAvg speedWind from/ knotsBaromVisibWave heightAir tempDewpointWater temp
2016-May-05 17:33N 59°20' E 018°04'7 5.8
2016-May-05 16:18N 59°23' E 018°17'2 0.2
2016-May-05 07:32N 59°21' E 018°14'5 5.4
2016-May-05 06:34N 59°20' E 018°05'0 0.0
2016-May-05 05:33N 59°20' E 018°05'0 0.0
2016-May-05 04:34N 59°20' E 018°05'0 0.0
2016-May-05 03:33N 59°20' E 018°05'0 0.0
2016-May-05 02:34N 59°20' E 018°05'0 0.0
2016-May-05 01:33N 59°20' E 018°05'0 0.0
2016-May-05 00:33N 59°20' E 018°05'0 0.0
2016-May-04 23:33N 59°20' E 018°05'0 0.0
2016-May-04 22:34N 59°20' E 018°05'0 0.0
2016-May-04 21:34N 59°20' E 018°05'0 0.0
2016-May-04 14:33N 59°19' E 018°05'7 6.6
2016-May-04 13:25N 59°23' E 018°18'2 0.4
2016-May-04 07:33N 59°21' E 018°14'5 5.1
2016-May-04 06:32N 59°20' E 018°05'0 0.0
2016-May-04 05:33N 59°20' E 018°05'0 0.0
2016-May-04 04:34N 59°20' E 018°05'0 0.0
2016-May-04 03:34N 59°20' E 018°05'0 0.0
2016-May-04 00:04N 59°20' E 018°05'0 0.0
2016-May-03 23:29N 59°20' E 018°05'0 0.0
2016-May-03 22:32N 59°20' E 018°05'0 0.0
2016-May-03 21:30N 59°20' E 018°05'0 0.0
2016-May-03 19:32N 59°20' E 018°05'0 0.0
2016-May-03 18:21N 59°20' E 018°05'0 0.0
2016-May-03 17:33N 59°20' E 018°05'0 0.0
2016-May-03 15:17N 59°20' E 018°05'0 0.0
2016-May-03 14:10N 59°20' E 018°05'0 0.0
2016-May-03 13:24N 59°20' E 018°05'0 0.0
2016-May-03 12:30N 59°20' E 018°05'0 0.0
2016-May-03 11:33N 59°20' E 018°05'0 0.0
2016-May-03 10:33N 59°20' E 018°05'0 0.0
2016-May-03 08:27N 59°20' E 018°05'0 0.0
2016-May-03 07:16N 59°20' E 018°05'0 0.0
2016-May-03 06:31N 59°20' E 018°05'0 0.0
2016-May-03 05:33N 59°20' E 018°05'0 0.0
2016-May-03 04:33N 59°20' E 018°05'0 0.0
2016-May-03 03:33N 59°20' E 018°05'0 0.0
2016-May-03 02:33N 59°20' E 018°05'0 0.0
2016-May-03 01:33N 59°20' E 018°05'0 0.0
2016-May-03 00:33N 59°20' E 018°05'0 0.0
2016-May-02 23:34N 59°20' E 018°05'0 0.0
2016-May-02 22:34N 59°20' E 018°05'0 0.0
2016-May-02 21:34N 59°20' E 018°05'0 0.0
2016-May-02 20:34N 59°20' E 018°05'0 0.0
2016-May-02 19:33N 59°20' E 018°05'0 0.0
2016-May-02 18:09N 59°20' E 018°05'0 0.0
2016-May-02 17:27N 59°20' E 018°05'0 0.0
2016-May-02 16:33N 59°20' E 018°05'0 0.0
2016-May-02 15:33N 59°20' E 018°05'4 0.5
2016-May-02 08:29N 59°20' E 018°11'4 3.8
2016-May-02 07:33N 59°20' E 018°05'0 0.0
2016-May-02 06:33N 59°20' E 018°05'0 0.0
2016-May-02 05:33N 59°20' E 018°05'0 0.0
2016-May-02 04:34N 59°20' E 018°05'0 0.0
2016-May-02 03:32N 59°20' E 018°05'0 0.0
2016-May-02 02:33N 59°20' E 018°05'0 0.0
2016-May-02 01:32N 59°20' E 018°05'0 0.0
2016-May-02 00:29N 59°20' E 018°05'0 0.0
2016-May-01 23:33N 59°20' E 018°05'0 0.0
2016-May-01 22:33N 59°20' E 018°05'0 0.0
2016-May-01 21:34N 59°20' E 018°05'0 0.0
2016-May-01 20:33N 59°20' E 018°05'0 0.0
2016-May-01 19:32N 59°20' E 018°05'0 0.0
2016-May-01 18:31N 59°20' E 018°05'0 0.1
2016-May-01 17:33N 59°20' E 018°05'5 5.0
2016-May-01 16:30N 59°21' E 018°15'2 0.2
2016-May-01 07:20N 59°20' E 018°12'4 4.7
2016-May-01 06:33N 59°20' E 018°05'0 0.1
2016-May-01 05:33N 59°20' E 018°05'0 0.0
2016-May-01 04:33N 59°20' E 018°05'0 0.0
2016-May-01 03:33N 59°20' E 018°05'0 0.0
2016-May-01 02:33N 59°20' E 018°05'0 0.0
2016-May-01 01:33N 59°20' E 018°05'0 0.0
2016-May-01 00:33N 59°20' E 018°05'0 0.0
2016-Apr-30 23:33N 59°20' E 018°05'0 0.0
2016-Apr-30 22:33N 59°20' E 018°05'0 0.0
2016-Apr-30 21:33N 59°20' E 018°05'0 0.0
2016-Apr-30 20:33N 59°20' E 018°05'0 0.0
2016-Apr-30 19:33N 59°20' E 018°05'0 0.0
2016-Apr-30 18:33N 59°20' E 018°05'0 0.0
2016-Apr-30 17:33N 59°20' E 018°05'0 0.0
2016-Apr-30 16:33N 59°20' E 018°05'0 0.0
2016-Apr-30 15:33N 59°20' E 018°05'0 0.0
2016-Apr-30 14:33N 59°20' E 018°05'0 0.0
2016-Apr-30 13:33N 59°20' E 018°05'0 0.0
2016-Apr-30 12:33N 59°20' E 018°05'0 0.0
2016-Apr-30 11:33N 59°20' E 018°05'0 0.0
2016-Apr-30 10:33N 59°20' E 018°05'0 0.0
2016-Apr-30 09:34N 59°20' E 018°05'0 0.0
2016-Apr-30 04:06N 59°20' E 018°05'0 0.0
2016-Apr-29 19:07N 59°20' E 018°05'0 0.0
2016-Apr-29 17:25N 59°20' E 018°05'0 0.0
2016-Apr-29 16:26N 59°20' E 018°05'0 0.0
2016-Apr-29 15:27N 59°20' E 018°05'0 0.0
2016-Apr-29 14:20N 59°20' E 018°05'0 0.0
2016-Apr-29 13:22N 59°20' E 018°05'0 0.0
2016-Apr-29 12:33N 59°20' E 018°05'0 0.0
2016-Apr-29 11:26N 59°20' E 018°05'0 0.0
2016-Apr-29 10:34N 59°20' E 018°05'0 0.0
2016-Apr-29 09:32N 59°20' E 018°05'0 0.0
2016-Apr-29 08:32N 59°20' E 018°05'0 0.0
2016-Apr-29 07:16N 59°20' E 018°05'0 0.0
2016-Apr-29 06:33N 59°20' E 018°05'0 0.0
2016-Apr-29 05:33N 59°20' E 018°05'0 0.0
2016-Apr-29 04:33N 59°20' E 018°05'0 0.0
2016-Apr-29 03:33N 59°20' E 018°05'0 0.0
2016-Apr-29 02:33N 59°20' E 018°05'0 0.0
2016-Apr-29 01:33N 59°20' E 018°05'0 0.0
2016-Apr-29 00:33N 59°20' E 018°05'0 0.0
2016-Apr-28 23:33N 59°20' E 018°05'0 0.0
2016-Apr-28 22:31N 59°20' E 018°05'0 0.0
2016-Apr-28 21:33N 59°20' E 018°05'0 0.0
2016-Apr-28 20:33N 59°20' E 018°05'0 0.0
2016-Apr-28 19:33N 59°20' E 018°05'0 0.0
2016-Apr-28 18:33N 59°20' E 018°05'0 0.0
2016-Apr-28 17:33N 59°20' E 018°05'0 0.0
2016-Apr-28 16:33N 59°20' E 018°05'0 0.0
2016-Apr-28 15:33N 59°20' E 018°05'0 0.0
2016-Apr-28 14:33N 59°20' E 018°05'0 0.0
2016-Apr-28 13:33N 59°20' E 018°05'0 0.0
2016-Apr-28 12:33N 59°20' E 018°05'0 0.0
2016-Apr-28 11:33N 59°20' E 018°05'0 0.0
2016-Apr-28 10:33N 59°20' E 018°05'0 0.0
2016-Apr-28 09:33N 59°20' E 018°05'0 0.0
2016-Apr-28 08:33N 59°20' E 018°05'0 0.0
2016-Apr-28 07:33N 59°20' E 018°05'0 0.0
2016-Apr-28 06:33N 59°20' E 018°05'0 0.0
2016-Apr-28 05:33N 59°20' E 018°05'0 0.0
2016-Apr-28 04:33N 59°20' E 018°05'0 0.0
2016-Apr-28 03:33N 59°20' E 018°05'0 0.0
2016-Apr-28 02:33N 59°20' E 018°05'0 0.0
2016-Apr-28 01:33N 59°20' E 018°05'0 0.0
2016-Apr-28 00:33N 59°20' E 018°05'0 0.0
2016-Apr-27 23:33N 59°20' E 018°05'0 0.0
2016-Apr-27 22:28N 59°20' E 018°05'0 0.0
2016-Apr-27 21:04N 59°20' E 018°05'0 0.0
2016-Apr-27 20:32N 59°20' E 018°05'0 0.0
2016-Apr-27 19:15N 59°20' E 018°05'0 0.0
2016-Apr-27 18:29N 59°20' E 018°05'0 0.0
2016-Apr-27 17:33N 59°20' E 018°05'0 0.0
2016-Apr-27 16:33N 59°20' E 018°05'0 0.0
2016-Apr-27 15:33N 59°20' E 018°05'0 0.0
2016-Apr-27 14:33N 59°20' E 018°05'0 0.0
2016-Apr-27 13:33N 59°20' E 018°05'0 0.0
2016-Apr-27 12:33N 59°20' E 018°05'0 0.0
2016-Apr-27 11:33N 59°20' E 018°05'0 0.0
2016-Apr-27 10:33N 59°20' E 018°05'0 0.0
2016-Apr-27 09:33N 59°20' E 018°05'0 0.0
2016-Apr-27 08:33N 59°20' E 018°05'0 0.0
2016-Apr-27 07:33N 59°20' E 018°05'0 0.0
2016-Apr-27 06:33N 59°20' E 018°05'0 0.0
2016-Apr-27 05:33N 59°20' E 018°05'0 0.0
2016-Apr-27 04:33N 59°20' E 018°05'0 0.0
2016-Apr-27 03:33N 59°20' E 018°05'0 0.0
2016-Apr-27 02:33N 59°20' E 018°05'0 0.0
2016-Apr-27 01:33N 59°20' E 018°05'0 0.0
2016-Apr-27 00:33N 59°20' E 018°05'0 0.0
2016-Apr-26 23:33N 59°20' E 018°05'0 0.0
2016-Apr-26 22:33N 59°20' E 018°05'0 0.0
2016-Apr-26 21:33N 59°20' E 018°05'0 0.0
2016-Apr-26 20:33N 59°20' E 018°05'0 0.0
2016-Apr-26 19:33N 59°20' E 018°05'0 0.0
2016-Apr-26 18:33N 59°20' E 018°05'0 0.0
2016-Apr-26 17:33N 59°20' E 018°05'0 0.0
2016-Apr-26 16:33N 59°20' E 018°05'0 0.0
2016-Apr-26 15:33N 59°20' E 018°05'0 0.0
2016-Apr-26 14:33N 59°20' E 018°05'0 0.0
2016-Apr-26 13:33N 59°20' E 018°05'0 0.0
2016-Apr-26 12:33N 59°20' E 018°05'0 0.0
2016-Apr-26 11:33N 59°20' E 018°05'0 0.0
2016-Apr-26 10:33N 59°20' E 018°05'0 0.0
2016-Apr-26 09:33N 59°20' E 018°05'0 0.0
2016-Apr-26 08:33N 59°20' E 018°05'0 0.0
2016-Apr-26 07:33N 59°20' E 018°05'0 0.0
2016-Apr-26 06:33N 59°20' E 018°05'0 0.0
2016-Apr-26 05:33N 59°20' E 018°05'0 0.0
2016-Apr-26 04:33N 59°20' E 018°05'0 0.0
2016-Apr-26 03:33N 59°20' E 018°05'0 0.0
2016-Apr-26 02:33N 59°20' E 018°05'0 0.0
2016-Apr-26 01:33N 59°20' E 018°05'0 0.0
2016-Apr-26 00:33N 59°20' E 018°05'0 0.0
2016-Apr-25 23:33N 59°20' E 018°05'0 0.0
2016-Apr-25 22:33N 59°20' E 018°05'0 0.0
2016-Apr-25 21:33N 59°20' E 018°05'0 0.0
2016-Apr-25 20:33N 59°20' E 018°05'0 0.0
2016-Apr-25 19:33N 59°20' E 018°05'0 0.0
2016-Apr-25 18:33N 59°20' E 018°05'  

Dump ship's entire track history